Terminal Aerodrome Forecast
Issued by NWS

Home | Current Version | Previous Version | Text Only | Print | Product List | Glossary On
Versions: 1 2 3 4 5 6 7 8 9 10 11 12 13 14 15 16 17 18 19 20 21
000
FTUS46 KSEW 281700
TAFOLM
TAF
KOLM 281720Z 2818/2918 23005KT P6SM SKC
     FM290600 00000KT P6SM SKC
     FM291200 00000KT 2SM BR BKN003
      TEMPO 2912/2916 1/4SM FG VV001
     FM291700 23005KT P6SM SKC=

USA.gov is the U.S. government's official web portal to all federal, state and local government web resources and services.